Time;durP1;ratioP1;P1;durP2;ratioP2;P2;SDS_P1;SDS_P2;PMS_P1;PMS_P2;Temp;Humidity;BMP_temperature;BMP_pressure;BME280_temperature;BME280_humidity;BME280_pressure;Samples;Min_cycle;Max_cycle;Signal;HPM_P1;HPM_P2
2023/03/28 00:01:07;;;;;;;4.40;4.00;;;;;;;;;;5031410;28;20197;-68
2023/03/28 00:03:38;;;;;;;5.68;3.40;;;;;;;;;;5031677;28;20566;-68
2023/03/28 00:06:08;;;;;;;3.92;3.28;;;;;;;;;;5031146;28;20237;-69
2023/03/28 00:08:38;;;;;;;5.35;3.58;;;;;;;;;;5032082;28;20213;-67
2023/03/28 00:11:07;;;;;;;6.05;3.03;;;;;;;;;;5031863;28;20667;-67
2023/03/28 00:13:35;;;;;;;3.05;2.83;;;;;;;;;;5030458;28;20209;-68
2023/03/28 00:16:07;;;;;;;3.75;2.83;;;;;;;;;;5034959;28;20205;-67
2023/03/28 00:18:37;;;;;;;5.28;3.80;;;;;;;;;;5034369;28;20203;-67
2023/03/28 00:21:06;;;;;;;5.28;4.53;;;;;;;;;;5029397;28;20691;-67
2023/03/28 00:23:35;;;;;;;7.13;4.40;;;;;;;;;;5029462;28;20206;-68
2023/03/28 00:26:07;;;;;;;19.13;10.90;;;;;;;;;;5032601;28;20201;-67
2023/03/28 00:28:36;;;;;;;8.30;5.65;;;;;;;;;;5031297;28;20189;-67
2023/03/28 00:31:07;;;;;;;5.30;4.60;;;;;;;;;;5034365;28;20205;-67
2023/03/28 00:33:35;;;;;;;4.38;3.45;;;;;;;;;;5034128;28;20193;-68
2023/03/28 00:36:03;;;;;;;6.10;3.17;;;;;;;;;;5029588;28;20189;-68
2023/03/28 00:38:32;;;;;;;3.65;3.00;;;;;;;;;;5034245;28;20205;-67
2023/03/28 00:41:00;;;;;;;4.82;2.60;;;;;;;;;;5034308;28;20201;-67
2023/03/28 00:43:39;;;;;;;4.05;2.67;;;;;;;;;;5034392;28;20217;-67
2023/03/28 00:46:11;;;;;;;4.95;2.13;;;;;;;;;;5034198;28;20193;-68
2023/03/28 00:48:41;;;;;;;3.78;2.50;;;;;;;;;;5049242;28;20205;-68
2023/03/28 00:51:10;;;;;;;4.47;2.40;;;;;;;;;;5033894;28;20186;-68
2023/03/28 00:53:38;;;;;;;3.38;2.53;;;;;;;;;;5033673;28;20201;-68
2023/03/28 00:56:08;;;;;;;2.85;2.22;;;;;;;;;;5027893;28;20216;-68
2023/03/28 00:58:41;;;;;;;2.45;2.25;;;;;;;;;;5025353;28;20205;-67
2023/03/28 01:01:12;;;;;;;2.63;2.25;;;;;;;;;;5033390;28;20194;-64
2023/03/28 01:03:45;;;;;;;5.13;2.50;;;;;;;;;;5034166;28;20224;-64
2023/03/28 01:06:16;;;;;;;2.33;2.13;;;;;;;;;;5034462;28;20254;-66
2023/03/28 01:08:46;;;;;;;4.28;2.30;;;;;;;;;;5033939;28;20467;-64
2023/03/28 01:11:16;;;;;;;5.20;2.17;;;;;;;;;;5035675;28;20194;-63
2023/03/28 01:13:47;;;;;;;5.00;2.58;;;;;;;;;;5035293;28;20283;-64
2023/03/28 01:16:17;;;;;;;3.92;2.50;;;;;;;;;;5034157;28;20618;-65
2023/03/28 01:18:50;;;;;;;3.45;2.95;;;;;;;;;;5050639;28;20190;-65
2023/03/28 01:21:47;;;;;;;2.88;2.58;;;;;;;;;;5036175;28;20620;-64
2023/03/28 01:24:45;;;;;;;3.65;2.50;;;;;;;;;;5050701;28;20189;-65
2023/03/28 01:27:16;;;;;;;2.58;2.38;;;;;;;;;;5033292;28;20193;-65
2023/03/28 01:30:03;;;;;;;3.15;2.45;;;;;;;;;;5035282;28;20687;-64
2023/03/28 01:33:08;;;;;;;3.50;1.98;;;;;;;;;;5050323;28;20738;-65
2023/03/28 01:35:57;;;;;;;5.65;2.38;;;;;;;;;;5035423;28;20622;-64
2023/03/28 01:38:30;;;;;;;9.90;1.90;;;;;;;;;;5013477;28;20194;-64
2023/03/28 01:41:03;;;;;;;3.90;2.35;;;;;;;;;;5016143;28;20186;-64
2023/03/28 01:43:44;;;;;;;4.38;2.58;;;;;;;;;;5013465;28;20224;-64
2023/03/28 01:46:14;;;;;;;10.00;2.70;;;;;;;;;;5013765;28;20204;-64
2023/03/28 01:48:50;;;;;;;3.17;2.40;;;;;;;;;;5013531;28;20200;-66
2023/03/28 01:51:24;;;;;;;6.28;1.95;;;;;;;;;;5027877;28;20197;-64
2023/03/28 01:53:58;;;;;;;2.88;1.92;;;;;;;;;;5033270;28;20192;-64
2023/03/28 01:56:29;;;;;;;2.53;1.90;;;;;;;;;;5033898;28;20185;-67
2023/03/28 01:59:03;;;;;;;2.50;2.30;;;;;;;;;;5032570;28;20200;-65
2023/03/28 02:01:54;;;;;;;3.45;2.40;;;;;;;;;;5025073;28;20200;-66
2023/03/28 02:04:24;;;;;;;2.63;1.80;;;;;;;;;;5020573;28;20205;-65
2023/03/28 02:06:58;;;;;;;3.45;2.10;;;;;;;;;;5025424;28;20255;-64
2023/03/28 02:09:31;;;;;;;1.95;1.83;;;;;;;;;;5025941;28;20190;-63
2023/03/28 02:12:11;;;;;;;2.05;1.80;;;;;;;;;;5028911;28;20186;-63
2023/03/28 02:15:03;;;;;;;3.10;2.35;;;;;;;;;;5034063;28;20213;-65
2023/03/28 02:17:53;;;;;;;4.65;2.40;;;;;;;;;;5034189;28;20200;-66
2023/03/28 02:20:46;;;;;;;2.40;2.17;;;;;;;;;;5050204;28;20229;-63
2023/03/28 02:23:16;;;;;;;6.00;1.95;;;;;;;;;;5033428;28;20217;-64
2023/03/28 02:26:16;;;;;;;3.40;1.92;;;;;;;;;;5014510;28;20209;-64
2023/03/28 02:28:58;;;;;;;2.33;2.13;;;;;;;;;;5011723;28;20196;-64
2023/03/28 02:31:46;;;;;;;4.90;1.88;;;;;;;;;;5014308;28;20257;-65
2023/03/28 02:34:15;;;;;;;2.47;1.50;;;;;;;;;;5012516;28;20293;-64
2023/03/28 02:36:47;;;;;;;2.08;1.88;;;;;;;;;;5012989;28;20208;-64
2023/03/28 02:39:31;;;;;;;6.03;2.28;;;;;;;;;;5013795;28;20190;-64
2023/03/28 02:42:11;;;;;;;2.38;2.03;;;;;;;;;;5014240;28;20194;-64
2023/03/28 02:44:46;;;;;;;2.53;2.25;;;;;;;;;;5013703;28;20190;-64
2023/03/28 02:47:17;;;;;;;1.83;1.65;;;;;;;;;;5013396;28;20190;-64
2023/03/28 02:49:48;;;;;;;2.75;1.90;;;;;;;;;;5012630;28;20190;-64
2023/03/28 02:52:22;;;;;;;1.90;1.80;;;;;;;;;;5014616;28;20655;-65
2023/03/28 02:54:53;;;;;;;2.10;1.90;;;;;;;;;;5014100;28;20186;-64
2023/03/28 02:57:33;;;;;;;3.95;1.85;;;;;;;;;;5012921;28;20240;-64
2023/03/28 03:00:09;;;;;;;2.90;2.20;;;;;;;;;;5013008;28;20196;-65
2023/03/28 03:02:38;;;;;;;2.38;2.17;;;;;;;;;;5012552;28;20214;-65
2023/03/28 03:05:08;;;;;;;3.38;2.28;;;;;;;;;;5029367;28;20202;-65
2023/03/28 03:07:37;;;;;;;3.38;2.17;;;;;;;;;;5033289;28;20229;-65
2023/03/28 03:10:06;;;;;;;3.00;2.28;;;;;;;;;;5033592;28;20209;-64
2023/03/28 03:12:36;;;;;;;2.90;2.05;;;;;;;;;;5029243;28;20208;-65
2023/03/28 03:15:06;;;;;;;2.28;1.90;;;;;;;;;;5015807;28;20220;-65
2023/03/28 03:17:53;;;;;;;3.05;2.10;;;;;;;;;;5029132;28;20189;-65
2023/03/28 03:20:33;;;;;;;3.63;2.20;;;;;;;;;;5028477;28;20228;-64
2023/03/28 03:23:01;;;;;;;3.40;2.38;;;;;;;;;;5012670;28;20715;-65
2023/03/28 03:25:30;;;;;;;3.83;3.53;;;;;;;;;;5011833;28;20680;-65
2023/03/28 03:28:15;;;;;;;7.85;2.55;;;;;;;;;;4996193;28;20201;-65
2023/03/28 03:30:43;;;;;;;2.88;2.17;;;;;;;;;;5012982;28;20641;-65
2023/03/28 03:33:13;;;;;;;3.20;2.03;;;;;;;;;;5021876;28;20217;-65
2023/03/28 03:35:44;;;;;;;3.10;2.80;;;;;;;;;;5032478;28;21016;-64
2023/03/28 03:38:13;;;;;;;4.90;1.80;;;;;;;;;;5032877;28;20200;-64
2023/03/28 03:40:42;;;;;;;2.33;2.15;;;;;;;;;;5032817;28;20675;-66
2023/03/28 03:43:11;;;;;;;2.42;2.28;;;;;;;;;;5032443;28;20236;-64
2023/03/28 03:45:42;;;;;;;2.28;2.08;;;;;;;;;;5032065;28;20659;-66
2023/03/28 03:48:10;;;;;;;5.55;2.70;;;;;;;;;;5032909;28;20205;-64
2023/03/28 03:50:40;;;;;;;3.45;2.55;;;;;;;;;;5032977;28;20205;-65
2023/03/28 03:53:17;;;;;;;1.80;1.70;;;;;;;;;;5037908;28;20617;-64
2023/03/28 03:55:52;;;;;;;2.85;2.65;;;;;;;;;;5035993;28;20204;-69
2023/03/28 03:58:20;;;;;;;3.55;2.65;;;;;;;;;;5053376;28;20200;-64
2023/03/28 04:00:50;;;;;;;5.68;2.70;;;;;;;;;;5052594;28;20669;-65
2023/03/28 04:03:48;;;;;;;18.05;3.08;;;;;;;;;;5046744;28;20585;-66
2023/03/28 04:06:23;;;;;;;2.80;2.60;;;;;;;;;;5052394;28;20317;-65
2023/03/28 04:08:52;;;;;;;3.97;2.70;;;;;;;;;;5054491;28;20300;-66
2023/03/28 04:11:34;;;;;;;3.00;2.70;;;;;;;;;;5050048;28;20246;-64
2023/03/28 04:14:03;;;;;;;2.97;2.47;;;;;;;;;;5050830;28;20209;-65
2023/03/28 04:16:33;;;;;;;3.47;2.65;;;;;;;;;;5032541;28;20205;-65
2023/03/28 04:19:04;;;;;;;2.78;2.60;;;;;;;;;;5034090;28;20246;-65
2023/03/28 04:21:34;;;;;;;2.50;2.22;;;;;;;;;;5026699;28;20657;-65
2023/03/28 04:24:05;;;;;;;3.55;2.70;;;;;;;;;;5033674;28;20734;-64
2023/03/28 04:26:39;;;;;;;4.40;3.30;;;;;;;;;;5031186;28;20241;-66
2023/03/28 04:29:11;;;;;;;5.60;3.33;;;;;;;;;;5015027;28;20269;-64
2023/03/28 04:31:48;;;;;;;3.78;3.40;;;;;;;;;;5015180;28;20689;-67
2023/03/28 04:34:24;;;;;;;4.22;3.55;;;;;;;;;;5017390;28;20559;-68
2023/03/28 04:37:16;;;;;;;3.40;2.63;;;;;;;;;;5016118;28;20269;-64
2023/03/28 04:39:57;;;;;;;4.50;2.92;;;;;;;;;;5029989;28;20249;-65
2023/03/28 04:42:42;;;;;;;7.57;3.33;;;;;;;;;;5032350;28;20261;-64
2023/03/28 04:45:14;;;;;;;8.48;3.03;;;;;;;;;;5016358;28;20652;-64
2023/03/28 04:47:45;;;;;;;6.05;3.60;;;;;;;;;;5016796;28;20270;-65
2023/03/28 04:50:22;;;;;;;13.15;3.38;;;;;;;;;;5021603;28;20356;-69
2023/03/28 04:52:50;;;;;;;12.65;4.55;;;;;;;;;;5033768;28;20289;-64
2023/03/28 04:55:19;;;;;;;11.30;5.80;;;;;;;;;;5035590;28;20281;-64
2023/03/28 04:57:49;;;;;;;9.13;5.80;;;;;;;;;;5055934;28;20208;-65
2023/03/28 05:00:21;;;;;;;12.07;4.45;;;;;;;;;;5072399;28;20267;-66
2023/03/28 05:03:11;;;;;;;6.60;5.45;;;;;;;;;;5028953;28;20281;-66
2023/03/28 05:05:47;;;;;;;7.80;3.83;;;;;;;;;;5029899;28;20273;-64
2023/03/28 05:08:16;;;;;;;8.23;5.03;;;;;;;;;;5053780;28;20271;-65
2023/03/28 05:10:46;;;;;;;4.47;3.75;;;;;;;;;;5043024;28;20285;-64
2023/03/28 05:13:15;;;;;;;9.10;3.17;;;;;;;;;;5040089;28;20371;-64
2023/03/28 05:15:48;;;;;;;4.60;2.80;;;;;;;;;;5056487;28;20392;-65
2023/03/28 05:18:40;;;;;;;5.38;3.17;;;;;;;;;;5041498;28;20280;-65
2023/03/28 05:21:09;;;;;;;4.50;3.53;;;;;;;;;;5040581;28;20304;-65
2023/03/28 05:23:37;;;;;;;7.07;3.40;;;;;;;;;;5042208;28;20702;-64
2023/03/28 05:26:14;;;;;;;7.28;2.72;;;;;;;;;;5048886;28;20803;-66
2023/03/28 05:28:43;;;;;;;6.30;2.97;;;;;;;;;;5029252;28;20281;-65
2023/03/28 05:31:11;;;;;;;4.90;3.58;;;;;;;;;;5014699;28;20253;-64
2023/03/28 05:33:41;;;;;;;4.85;2.88;;;;;;;;;;5038893;28;20607;-65
2023/03/28 05:36:10;;;;;;;5.68;3.25;;;;;;;;;;5035314;28;20262;-65
2023/03/28 05:38:38;;;;;;;4.63;3.30;;;;;;;;;;5028682;28;20282;-64
2023/03/28 05:41:13;;;;;;;4.80;3.13;;;;;;;;;;5026624;28;20693;-66
2023/03/28 05:43:41;;;;;;;3.58;3.28;;;;;;;;;;5049147;28;20272;-64
2023/03/28 05:46:09;;;;;;;11.27;4.32;;;;;;;;;;5063042;28;20256;-64
2023/03/28 05:48:44;;;;;;;9.52;3.58;;;;;;;;;;5060044;28;20615;-65
2023/03/28 05:51:12;;;;;;;3.40;3.10;;;;;;;;;;5061265;28;20264;-64
2023/03/28 05:53:40;;;;;;;4.93;2.85;;;;;;;;;;5060652;28;20287;-63
2023/03/28 05:56:11;;;;;;;6.45;3.53;;;;;;;;;;5060568;28;20268;-63
2023/03/28 05:58:40;;;;;;;4.57;3.10;;;;;;;;;;5060594;28;20260;-64
2023/03/28 06:01:08;;;;;;;9.10;5.15;;;;;;;;;;5060033;28;20346;-64
2023/03/28 06:03:38;;;;;;;74.90;40.08;;;;;;;;;;5058208;28;20589;-63
2023/03/28 06:06:09;;;;;;;23.50;16.10;;;;;;;;;;5060899;28;20331;-63
2023/03/28 06:08:38;;;;;;;14.95;9.75;;;;;;;;;;5059602;28;20288;-63
2023/03/28 06:11:07;;;;;;;8.80;5.93;;;;;;;;;;5060435;28;20275;-63
2023/03/28 06:14:06;;;;;;;8.50;6.28;;;;;;;;;;5060028;28;20256;-63
2023/03/28 06:16:34;;;;;;;13.40;4.35;;;;;;;;;;5060389;28;20295;-64
2023/03/28 06:19:03;;;;;;;5.57;4.90;;;;;;;;;;5042726;28;20814;-62
2023/03/28 06:21:32;;;;;;;7.63;5.00;;;;;;;;;;5040907;28;20253;-64
2023/03/28 06:24:06;;;;;;;12.50;5.90;;;;;;;;;;5036205;28;20598;-63
2023/03/28 06:26:40;;;;;;;14.80;8.50;;;;;;;;;;5020352;28;20272;-63
2023/03/28 06:29:10;;;;;;;15.38;11.15;;;;;;;;;;5037140;28;20257;-61
2023/03/28 06:31:43;;;;;;;10.20;7.55;;;;;;;;;;5040453;28;20245;-62
2023/03/28 06:34:11;;;;;;;6.32;5.05;;;;;;;;;;5039558;28;20280;-64
2023/03/28 06:36:51;;;;;;;10.25;5.80;;;;;;;;;;5052194;28;20256;-62
2023/03/28 06:39:20;;;;;;;7.53;5.05;;;;;;;;;;5053290;28;20288;-65
2023/03/28 06:41:48;;;;;;;7.28;3.97;;;;;;;;;;5035214;28;20209;-64
2023/03/28 06:44:16;;;;;;;6.95;3.80;;;;;;;;;;5036708;28;20225;-63
2023/03/28 06:47:14;;;;;;;8.13;5.40;;;;;;;;;;5041599;28;20265;-63
2023/03/28 06:49:42;;;;;;;14.60;10.85;;;;;;;;;;5033212;28;20819;-63
2023/03/28 06:52:30;;;;;;;10.35;8.48;;;;;;;;;;5023284;28;20241;-64
2023/03/28 06:55:00;;;;;;;7.00;4.38;;;;;;;;;;5023287;28;20261;-62
2023/03/28 06:57:29;;;;;;;13.27;5.30;;;;;;;;;;5028928;28;20707;-62
2023/03/28 07:00:10;;;;;;;15.27;5.00;;;;;;;;;;5051967;28;20192;-62
2023/03/28 07:03:01;;;;;;;4.72;3.70;;;;;;;;;;5041231;28;20260;-64
2023/03/28 07:05:29;;;;;;;5.05;4.10;;;;;;;;;;5066880;28;20639;-65
2023/03/28 07:07:59;;;;;;;5.13;3.40;;;;;;;;;;5062678;28;20656;-64
2023/03/28 07:10:27;;;;;;;12.48;5.32;;;;;;;;;;5065847;28;20279;-63
2023/03/28 07:12:56;;;;;;;4.80;3.85;;;;;;;;;;5064784;28;20264;-63
2023/03/28 07:15:24;;;;;;;7.60;4.13;;;;;;;;;;5052085;28;20243;-63
2023/03/28 07:17:53;;;;;;;3.60;3.30;;;;;;;;;;5063200;28;20294;-64
2023/03/28 07:20:21;;;;;;;12.55;7.55;;;;;;;;;;5061988;28;20280;-63
2023/03/28 07:22:49;;;;;;;5.10;4.60;;;;;;;;;;5060419;28;20260;-64
2023/03/28 07:25:19;;;;;;;10.57;4.10;;;;;;;;;;5061105;28;20280;-63
2023/03/28 07:27:48;;;;;;;6.60;3.70;;;;;;;;;;5058169;28;20287;-63
2023/03/28 07:30:17;;;;;;;12.10;4.32;;;;;;;;;;5053441;28;20258;-63
2023/03/28 07:32:46;;;;;;;7.30;4.70;;;;;;;;;;5053492;28;20205;-64
2023/03/28 07:35:14;;;;;;;5.78;3.47;;;;;;;;;;5053782;28;20215;-62
2023/03/28 07:37:48;;;;;;;7.38;4.07;;;;;;;;;;5054026;28;20205;-62
2023/03/28 07:40:34;;;;;;;6.80;3.92;;;;;;;;;;5053161;28;20273;-63
2023/03/28 07:43:04;;;;;;;9.82;4.07;;;;;;;;;;5054682;28;20303;-65
2023/03/28 07:45:33;;;;;;;4.20;3.80;;;;;;;;;;5056500;28;20409;-64
2023/03/28 07:48:01;;;;;;;4.00;3.50;;;;;;;;;;5049190;28;20280;-64
2023/03/28 07:50:30;;;;;;;6.72;3.53;;;;;;;;;;5036095;28;20291;-64
2023/03/28 07:52:59;;;;;;;6.90;4.07;;;;;;;;;;5035021;28;20283;-65
2023/03/28 07:55:32;;;;;;;4.18;3.78;;;;;;;;;;5036483;28;20264;-63
2023/03/28 07:58:02;;;;;;;4.68;3.72;;;;;;;;;;5035775;28;20199;-63
2023/03/28 08:00:33;;;;;;;5.28;4.15;;;;;;;;;;5034317;28;20276;-64
2023/03/28 08:03:22;;;;;;;6.60;3.72;;;;;;;;;;5004174;28;20255;-69
2023/03/28 08:05:51;;;;;;;6.05;4.10;;;;;;;;;;5031448;28;20690;-63
2023/03/28 08:08:20;;;;;;;5.50;3.80;;;;;;;;;;5031133;28;20697;-64
2023/03/28 08:11:00;;;;;;;10.98;4.35;;;;;;;;;;5030879;28;20624;-64
2023/03/28 08:13:31;;;;;;;10.95;4.28;;;;;;;;;;5033543;28;20215;-64
2023/03/28 08:16:05;;;;;;;4.05;3.65;;;;;;;;;;5030995;28;20193;-64
2023/03/28 08:18:33;;;;;;;6.70;3.90;;;;;;;;;;5032855;28;20564;-63
2023/03/28 08:21:02;;;;;;;6.53;4.40;;;;;;;;;;5036259;28;20308;-65
2023/03/28 08:23:33;;;;;;;4.20;3.20;;;;;;;;;;5038494;28;20316;-63
2023/03/28 08:26:24;;;;;;;4.22;3.92;;;;;;;;;;5036390;28;20308;-64
2023/03/28 08:28:57;;;;;;;5.47;4.40;;;;;;;;;;5014364;28;20539;-63
2023/03/28 08:31:28;;;;;;;5.22;4.57;;;;;;;;;;5033851;28;20296;-64
2023/03/28 08:34:03;;;;;;;9.13;5.53;;;;;;;;;;5036117;28;20269;-63
2023/03/28 08:36:38;;;;;;;11.63;4.63;;;;;;;;;;5039092;28;20185;-63
2023/03/28 08:39:08;;;;;;;8.07;5.80;;;;;;;;;;5037638;28;20697;-63
2023/03/28 08:41:46;;;;;;;6.38;5.18;;;;;;;;;;5033054;28;20236;-64
2023/03/28 08:44:23;;;;;;;15.20;6.60;;;;;;;;;;5019864;28;20198;-64
2023/03/28 08:46:55;;;;;;;6.90;6.25;;;;;;;;;;5020189;28;20221;-68
2023/03/28 08:49:26;;;;;;;11.38;6.10;;;;;;;;;;5020116;28;20323;-67
2023/03/28 08:51:57;;;;;;;7.78;6.82;;;;;;;;;;5019976;28;20292;-63
2023/03/28 08:54:30;;;;;;;6.68;6.00;;;;;;;;;;5019716;28;20609;-65
2023/03/28 08:57:00;;;;;;;7.47;6.97;;;;;;;;;;5029737;28;20236;-63
2023/03/28 08:59:32;;;;;;;7.53;6.97;;;;;;;;;;5063321;28;20256;-65
2023/03/28 09:02:00;;;;;;;6.45;5.85;;;;;;;;;;5059296;28;20264;-64
2023/03/28 09:04:29;;;;;;;8.90;5.60;;;;;;;;;;5062677;28;20264;-65
2023/03/28 09:07:14;;;;;;;6.93;6.28;;;;;;;;;;5058445;28;20242;-64
2023/03/28 09:09:45;;;;;;;6.70;6.10;;;;;;;;;;5060585;28;20243;-65
2023/03/28 09:12:34;;;;;;;7.28;6.72;;;;;;;;;;5060552;28;20248;-63
2023/03/28 09:15:21;;;;;;;10.10;6.93;;;;;;;;;;5061737;28;20248;-65
2023/03/28 09:17:57;;;;;;;7.35;6.82;;;;;;;;;;5064338;28;20258;-63
2023/03/28 09:20:28;;;;;;;7.95;7.25;;;;;;;;;;5058248;28;20649;-63
2023/03/28 09:23:20;;;;;;;7.68;7.28;;;;;;;;;;5059780;28;20264;-63
2023/03/28 09:26:09;;;;;;;8.20;7.38;;;;;;;;;;5062842;28;20264;-62
2023/03/28 09:28:45;;;;;;;9.75;9.00;;;;;;;;;;5060332;28;20279;-63
2023/03/28 09:31:17;;;;;;;9.52;8.85;;;;;;;;;;5061039;28;20615;-64
2023/03/28 09:33:48;;;;;;;8.60;8.00;;;;;;;;;;5071447;28;20191;-64
2023/03/28 09:36:24;;;;;;;10.35;9.50;;;;;;;;;;5054703;28;20253;-65
2023/03/28 09:38:54;;;;;;;10.68;9.65;;;;;;;;;;5055775;28;20188;-63
2023/03/28 09:41:25;;;;;;;9.82;8.95;;;;;;;;;;5055201;28;20216;-64
2023/03/28 09:44:15;;;;;;;10.40;9.40;;;;;;;;;;5055022;28;20204;-64
2023/03/28 09:47:12;;;;;;;9.70;9.00;;;;;;;;;;5057820;28;20760;-64
2023/03/28 09:49:48;;;;;;;10.05;9.45;;;;;;;;;;5038445;28;20276;-61
2023/03/28 09:52:19;;;;;;;10.95;10.05;;;;;;;;;;5036141;28;20266;-62
2023/03/28 09:54:49;;;;;;;12.00;10.68;;;;;;;;;;5029538;28;20273;-64
2023/03/28 09:57:17;;;;;;;10.52;9.80;;;;;;;;;;5027083;28;20652;-64
2023/03/28 09:59:58;;;;;;;10.68;9.95;;;;;;;;;;5031672;28;20207;-66
2023/03/28 10:02:33;;;;;;;11.02;10.30;;;;;;;;;;5034163;28;20203;-64
2023/03/28 10:05:27;;;;;;;10.60;10.00;;;;;;;;;;5034494;28;20627;-65
2023/03/28 10:08:03;;;;;;;10.82;10.13;;;;;;;;;;5034611;28;20295;-67
2023/03/28 10:10:54;;;;;;;12.43;11.60;;;;;;;;;;5029814;28;20195;-64
2023/03/28 10:13:23;;;;;;;10.90;9.95;;;;;;;;;;5029975;28;20189;-65
2023/03/28 10:15:52;;;;;;;10.75;10.25;;;;;;;;;;5030299;28;20208;-63
2023/03/28 10:18:40;;;;;;;11.25;9.93;;;;;;;;;;5033541;28;20208;-64
2023/03/28 10:21:16;;;;;;;11.80;10.50;;;;;;;;;;5034157;28;20225;-63
2023/03/28 10:23:50;;;;;;;11.80;11.10;;;;;;;;;;5013381;28;20194;-62
2023/03/28 10:26:22;;;;;;;11.90;11.00;;;;;;;;;;5014008;28;20225;-65
2023/03/28 10:28:53;;;;;;;12.00;11.45;;;;;;;;;;5010589;28;20741;-64
2023/03/28 10:31:27;;;;;;;11.73;11.00;;;;;;;;;;5011231;28;20205;-68
2023/03/28 10:33:58;;;;;;;12.55;11.82;;;;;;;;;;5011411;28;20205;-64
2023/03/28 10:37:03;;;;;;;12.30;11.60;;;;;;;;;;5012682;28;20213;-63
2023/03/28 10:39:58;;;;;;;13.13;12.32;;;;;;;;;;5016601;28;20194;-64
2023/03/28 10:42:56;;;;;;;12.68;12.02;;;;;;;;;;5018756;28;20265;-65
2023/03/28 10:45:44;;;;;;;13.23;12.32;;;;;;;;;;5020012;28;20316;-65
2023/03/28 10:48:17;;;;;;;13.00;12.23;;;;;;;;;;5014771;28;20262;-64
2023/03/28 10:50:47;;;;;;;13.10;12.43;;;;;;;;;;5013094;28;20659;-64
2023/03/28 10:53:27;;;;;;;14.07;12.82;;;;;;;;;;5013408;28;20206;-64
2023/03/28 10:56:04;;;;;;;12.88;12.13;;;;;;;;;;5024977;28;20643;-64
2023/03/28 10:58:47;;;;;;;13.60;12.45;;;;;;;;;;5018939;28;20198;-62
2023/03/28 11:01:25;;;;;;;13.15;11.95;;;;;;;;;;5022311;28;20744;-66
2023/03/28 11:04:12;;;;;;;14.00;12.95;;;;;;;;;;5038716;28;20193;-63
2023/03/28 11:06:45;;;;;;;12.65;11.95;;;;;;;;;;5012721;28;20379;-63
2023/03/28 11:09:20;;;;;;;13.18;12.57;;;;;;;;;;5013283;28;20196;-64
2023/03/28 11:12:09;;;;;;;13.68;13.07;;;;;;;;;;5014161;28;20201;-64
2023/03/28 11:14:46;;;;;;;14.77;13.60;;;;;;;;;;5015518;28;20280;-64
2023/03/28 11:17:20;;;;;;;13.50;12.70;;;;;;;;;;5013240;28;20192;-64
2023/03/28 11:20:16;;;;;;;14.18;13.25;;;;;;;;;;5039791;28;20292;-64
2023/03/28 11:22:51;;;;;;;14.27;13.10;;;;;;;;;;5052551;28;20189;-63
2023/03/28 11:25:22;;;;;;;13.00;12.50;;;;;;;;;;5040733;28;20317;-62
2023/03/28 11:28:04;;;;;;;13.40;12.70;;;;;;;;;;5027682;28;20214;-64
2023/03/28 11:30:40;;;;;;;13.15;12.57;;;;;;;;;;5054973;28;20638;-63
2023/03/28 11:33:21;;;;;;;13.52;12.77;;;;;;;;;;5033124;28;20189;-66
2023/03/28 11:36:00;;;;;;;13.90;13.30;;;;;;;;;;5025035;28;20661;-63
2023/03/28 11:38:31;;;;;;;14.30;13.55;;;;;;;;;;5024519;28;20676;-64
2023/03/28 11:41:03;;;;;;;14.25;13.50;;;;;;;;;;5022896;28;20198;-64
2023/03/28 11:43:53;;;;;;;13.90;12.95;;;;;;;;;;5027780;28;20275;-64
2023/03/28 11:46:25;;;;;;;13.82;13.02;;;;;;;;;;5027156;28;20272;-65
2023/03/28 11:48:55;;;;;;;13.13;12.43;;;;;;;;;;5023736;28;20277;-64
2023/03/28 11:51:30;;;;;;;14.03;13.10;;;;;;;;;;5024134;28;20246;-65
2023/03/28 11:54:02;;;;;;;13.97;13.00;;;;;;;;;;5026265;28;20664;-64
2023/03/28 11:56:42;;;;;;;15.33;14.13;;;;;;;;;;5044057;28;20664;-65
2023/03/28 11:59:23;;;;;;;14.33;13.53;;;;;;;;;;5026757;28;21015;-65
2023/03/28 12:01:54;;;;;;;15.03;13.90;;;;;;;;;;5016786;28;20603;-69
2023/03/28 12:04:26;;;;;;;14.00;13.30;;;;;;;;;;5024801;28;20700;-65
2023/03/28 12:07:04;;;;;;;15.00;13.80;;;;;;;;;;5033909;28;20671;-65
2023/03/28 12:09:47;;;;;;;14.77;13.77;;;;;;;;;;5035309;28;20718;-65
2023/03/28 12:12:20;;;;;;;14.47;13.77;;;;;;;;;;5033867;28;20698;-64
2023/03/28 12:14:53;;;;;;;14.80;14.10;;;;;;;;;;5040977;28;20687;-65
2023/03/28 12:17:34;;;;;;;15.23;14.40;;;;;;;;;;5037849;28;20683;-66
2023/03/28 12:20:06;;;;;;;14.23;13.63;;;;;;;;;;5030491;28;20727;-66
2023/03/28 12:22:40;;;;;;;14.90;14.17;;;;;;;;;;5033479;28;20599;-64
2023/03/28 12:25:14;;;;;;;14.70;13.93;;;;;;;;;;5053943;28;20687;-64
2023/03/28 12:27:55;;;;;;;16.00;14.90;;;;;;;;;;5024132;28;20711;-65
2023/03/28 12:30:31;;;;;;;15.53;14.07;;;;;;;;;;5023328;28;20692;-64
2023/03/28 12:33:07;;;;;;;15.17;14.27;;;;;;;;;;5022870;28;20695;-64
2023/03/28 12:35:48;;;;;;;14.90;14.00;;;;;;;;;;5032771;28;20700;-64
2023/03/28 12:38:23;;;;;;;15.43;14.30;;;;;;;;;;5050669;28;21496;-65
2023/03/28 12:41:02;;;;;;;14.93;14.03;;;;;;;;;;5037761;28;20699;-66
2023/03/28 12:43:46;;;;;;;15.23;14.30;;;;;;;;;;5036508;28;20691;-63
2023/03/28 12:46:21;;;;;;;15.73;14.70;;;;;;;;;;5029907;28;20649;-63
2023/03/28 12:48:52;;;;;;;15.27;14.37;;;;;;;;;;5050727;28;20746;-63
2023/03/28 12:51:29;;;;;;;14.80;14.10;;;;;;;;;;5041216;28;20679;-63
2023/03/28 12:54:07;;;;;;;14.70;13.90;;;;;;;;;;5033391;28;20695;-64
2023/03/28 12:56:35;;;;;;;15.57;14.60;;;;;;;;;;5031519;28;21283;-63
2023/03/28 12:59:42;;;;;;;15.73;14.37;;;;;;;;;;5049827;28;20670;-64
2023/03/28 13:02:24;;;;;;;15.03;14.20;;;;;;;;;;5059470;28;20714;-64
2023/03/28 13:05:06;;;;;;;14.80;14.10;;;;;;;;;;5062749;28;20610;-64
2023/03/28 13:07:42;;;;;;;15.37;14.40;;;;;;;;;;5038901;28;20755;-63
2023/03/28 13:10:16;;;;;;;15.57;14.50;;;;;;;;;;5054285;28;20678;-65
2023/03/28 13:12:51;;;;;;;14.73;14.03;;;;;;;;;;5017259;28;20584;-65
2023/03/28 13:15:30;;;;;;;15.30;14.20;;;;;;;;;;5015977;28;21169;-63
2023/03/28 13:18:18;;;;;;;15.43;14.13;;;;;;;;;;5016609;28;20656;-64
2023/03/28 13:20:47;;;;;;;14.23;13.30;;;;;;;;;;5038782;28;21295;-63
2023/03/28 13:23:16;;;;;;;15.10;14.00;;;;;;;;;;5044597;28;20710;-64
2023/03/28 13:25:53;;;;;;;15.00;14.00;;;;;;;;;;5051482;28;20630;-63
2023/03/28 13:28:28;;;;;;;14.47;13.67;;;;;;;;;;5056067;28;20658;-64
2023/03/28 13:31:08;;;;;;;14.80;13.77;;;;;;;;;;5054921;28;20950;-64
2023/03/28 13:33:38;;;;;;;14.80;13.80;;;;;;;;;;5055677;28;20673;-63
2023/03/28 13:36:13;;;;;;;14.70;14.00;;;;;;;;;;5054402;28;20618;-64
2023/03/28 13:38:46;;;;;;;15.43;14.30;;;;;;;;;;5055507;28;21050;-64
2023/03/28 13:41:33;;;;;;;15.53;14.37;;;;;;;;;;5054600;28;20618;-63
2023/03/28 13:44:02;;;;;;;15.53;14.53;;;;;;;;;;5055906;28;20699;-62
2023/03/28 13:46:34;;;;;;;15.57;14.70;;;;;;;;;;5054292;28;20679;-63
2023/03/28 13:49:05;;;;;;;15.10;14.30;;;;;;;;;;5042707;28;20651;-64
2023/03/28 13:51:37;;;;;;;16.07;15.00;;;;;;;;;;5035544;28;20596;-64
2023/03/28 13:54:06;;;;;;;15.70;14.90;;;;;;;;;;5052950;28;20619;-64
2023/03/28 13:56:35;;;;;;;15.03;14.23;;;;;;;;;;5054667;28;20621;-63
2023/03/28 13:59:05;;;;;;;16.50;15.70;;;;;;;;;;5055226;28;20710;-63
2023/03/28 14:01:37;;;;;;;16.10;15.10;;;;;;;;;;5053973;28;20617;-65
2023/03/28 14:04:10;;;;;;;16.20;15.30;;;;;;;;;;5054187;28;20587;-64
2023/03/28 14:06:40;;;;;;;16.00;15.10;;;;;;;;;;5056478;28;20630;-64
2023/03/28 14:09:14;;;;;;;15.70;14.60;;;;;;;;;;5057029;28;20726;-63
2023/03/28 14:11:44;;;;;;;14.80;13.90;;;;;;;;;;5054433;28;20591;-63
2023/03/28 14:14:14;;;;;;;16.27;15.47;;;;;;;;;;5035054;28;20637;-64
2023/03/28 14:16:44;;;;;;;15.80;14.87;;;;;;;;;;5025159;28;20958;-64
2023/03/28 14:19:16;;;;;;;15.20;14.50;;;;;;;;;;5020759;28;20589;-65
2023/03/28 14:21:45;;;;;;;15.00;14.40;;;;;;;;;;5039602;28;21124;-63
2023/03/28 14:24:16;;;;;;;15.50;14.70;;;;;;;;;;5021084;28;20623;-63
2023/03/28 14:26:46;;;;;;;17.40;16.40;;;;;;;;;;5032075;28;20976;-63
2023/03/28 14:29:17;;;;;;;14.90;14.20;;;;;;;;;;5038757;28;20979;-63
2023/03/28 14:31:47;;;;;;;16.43;15.60;;;;;;;;;;5033810;28;21217;-63
2023/03/28 14:34:17;;;;;;;16.13;15.13;;;;;;;;;;5024402;28;20635;-62
2023/03/28 14:37:00;;;;;;;15.37;14.50;;;;;;;;;;5015699;28;20613;-64
2023/03/28 14:39:29;;;;;;;15.70;14.90;;;;;;;;;;5015552;28;20593;-64
2023/03/28 14:41:59;;;;;;;16.40;15.10;;;;;;;;;;5016669;28;20593;-63
2023/03/28 14:44:29;;;;;;;15.30;14.60;;;;;;;;;;5015054;28;20609;-63
2023/03/28 14:47:00;;;;;;;15.67;14.87;;;;;;;;;;5030007;28;20710;-63
2023/03/28 14:49:28;;;;;;;15.70;14.80;;;;;;;;;;5036255;28;20700;-63
2023/03/28 14:51:57;;;;;;;16.37;15.50;;;;;;;;;;5035281;28;21229;-63
2023/03/28 14:54:27;;;;;;;16.67;15.77;;;;;;;;;;5034977;28;20718;-63
2023/03/28 14:56:57;;;;;;;15.37;14.67;;;;;;;;;;5035243;28;20715;-63
2023/03/28 14:59:31;;;;;;;16.23;15.33;;;;;;;;;;5035757;28;20667;-63
2023/03/28 15:02:03;;;;;;;15.23;14.53;;;;;;;;;;5034429;28;20599;-65
2023/03/28 15:04:32;;;;;;;14.83;14.03;;;;;;;;;;5034305;28;20677;-64
2023/03/28 15:07:01;;;;;;;15.03;13.90;;;;;;;;;;5034760;28;20640;-64
2023/03/28 15:09:31;;;;;;;14.33;13.73;;;;;;;;;;5035243;28;20737;-65
2023/03/28 15:12:05;;;;;;;15.17;14.37;;;;;;;;;;5036018;28;20720;-64
2023/03/28 15:14:44;;;;;;;13.97;13.10;;;;;;;;;;5036869;28;20600;-63
2023/03/28 15:17:18;;;;;;;14.13;13.43;;;;;;;;;;5033458;28;20703;-63